sensor_id;sensor_type;location;lat;lon;timestamp;pressure;altitude;pressure_sealevel;temperature;humidity
74635;BME280;63140;56.306;43.984;2022-11-20T00:00:04;99815.88;;;-6.62;72.23
74635;BME280;63140;56.306;43.984;2022-11-20T00:02:32;99828.78;;;-6.62;71.35
74635;BME280;63140;56.306;43.984;2022-11-20T00:04:58;99813.28;;;-6.62;71.38
74635;BME280;63140;56.306;43.984;2022-11-20T00:07:24;99820.50;;;-6.64;71.68
74635;BME280;63140;56.306;43.984;2022-11-20T00:09:50;99827.75;;;-6.66;71.36
74635;BME280;63140;56.306;43.984;2022-11-20T00:12:16;99818.47;;;-6.72;72.45
74635;BME280;63140;56.306;43.984;2022-11-20T00:14:41;99825.16;;;-6.71;71.57
74635;BME280;63140;56.306;43.984;2022-11-20T00:17:07;99822.06;;;-6.78;71.99
74635;BME280;63140;56.306;43.984;2022-11-20T00:19:33;99820.53;;;-6.79;72.27
74635;BME280;63140;56.306;43.984;2022-11-20T00:21:59;99816.16;;;-6.84;72.17
74635;BME280;63140;56.306;43.984;2022-11-20T00:24:25;99806.06;;;-6.85;72.58
74635;BME280;63140;56.306;43.984;2022-11-20T00:26:51;99808.13;;;-6.82;72.05
74635;BME280;63140;56.306;43.984;2022-11-20T00:29:16;99812.53;;;-6.73;72.97
74635;BME280;63140;56.306;43.984;2022-11-20T00:31:42;99801.94;;;-6.71;73.10
74635;BME280;63140;56.306;43.984;2022-11-20T00:34:09;99798.06;;;-6.68;71.36
74635;BME280;63140;56.306;43.984;2022-11-20T00:36:35;99812.78;;;-6.79;71.23
74635;BME280;63140;56.306;43.984;2022-11-20T00:39:00;99819.75;;;-6.85;71.18
74635;BME280;63140;56.306;43.984;2022-11-20T00:41:28;99814.84;;;-6.86;71.97
74635;BME280;63140;56.306;43.984;2022-11-20T00:43:55;99803.47;;;-6.96;72.46
74635;BME280;63140;56.306;43.984;2022-11-20T00:46:22;99800.66;;;-6.94;73.00
74635;BME280;63140;56.306;43.984;2022-11-20T00:48:49;99808.66;;;-6.96;72.62
74635;BME280;63140;56.306;43.984;2022-11-20T00:51:18;99800.66;;;-7.04;73.61
74635;BME280;63140;56.306;43.984;2022-11-20T00:53:45;99800.91;;;-7.06;72.34
74635;BME280;63140;56.306;43.984;2022-11-20T00:56:13;99796.25;;;-6.99;73.73
74635;BME280;63140;56.306;43.984;2022-11-20T00:58:40;99802.47;;;-6.94;72.87
74635;BME280;63140;56.306;43.984;2022-11-20T01:01:10;99806.06;;;-6.96;72.19
74635;BME280;63140;56.306;43.984;2022-11-20T01:03:41;99799.91;;;-6.94;72.10
74635;BME280;63140;56.306;43.984;2022-11-20T01:06:14;99802.47;;;-6.94;72.64
74635;BME280;63140;56.306;43.984;2022-11-20T01:08:42;99801.44;;;-6.93;72.50
74635;BME280;63140;56.306;43.984;2022-11-20T01:11:17;99797.56;;;-6.91;73.07
74635;BME280;63140;56.306;43.984;2022-11-20T01:13:44;99774.06;;;-6.94;73.10
74635;BME280;63140;56.306;43.984;2022-11-20T01:16:16;99776.13;;;-6.97;73.27
74635;BME280;63140;56.306;43.984;2022-11-20T01:18:45;99780.78;;;-6.93;72.04
74635;BME280;63140;56.306;43.984;2022-11-20T01:21:13;99787.47;;;-7.03;73.21
74635;BME280;63140;56.306;43.984;2022-11-20T01:23:41;99789.03;;;-6.97;72.79
74635;BME280;63140;56.306;43.984;2022-11-20T01:26:10;99771.22;;;-6.93;71.86
74635;BME280;63140;56.306;43.984;2022-11-20T01:28:36;99790.06;;;-6.92;72.04
74635;BME280;63140;56.306;43.984;2022-11-20T01:31:14;99790.56;;;-6.96;73.51
74635;BME280;63140;56.306;43.984;2022-11-20T01:33:41;99795.75;;;-6.90;73.04
74635;BME280;63140;56.306;43.984;2022-11-20T01:36:08;99790.09;;;-6.87;73.15
74635;BME280;63140;56.306;43.984;2022-11-20T01:38:35;99795.22;;;-6.82;73.15
74635;BME280;63140;56.306;43.984;2022-11-20T01:41:01;99799.38;;;-6.76;72.69
74635;BME280;63140;56.306;43.984;2022-11-20T01:43:27;99810.72;;;-6.77;72.41
74635;BME280;63140;56.306;43.984;2022-11-20T01:46:01;99815.91;;;-6.77;71.81
74635;BME280;63140;56.306;43.984;2022-11-20T01:48:53;99814.59;;;-6.85;71.82
74635;BME280;63140;56.306;43.984;2022-11-20T01:51:29;99811.22;;;-6.85;71.70
74635;BME280;63140;56.306;43.984;2022-11-20T01:53:59;99799.34;;;-6.91;71.85
74635;BME280;63140;56.306;43.984;2022-11-20T01:56:27;99808.13;;;-6.92;72.29
74635;BME280;63140;56.306;43.984;2022-11-20T01:58:57;99790.84;;;-6.97;72.32
74635;BME280;63140;56.306;43.984;2022-11-20T02:01:23;99790.09;;;-6.98;72.03
74635;BME280;63140;56.306;43.984;2022-11-20T02:03:50;99802.47;;;-7.00;71.53
74635;BME280;63140;56.306;43.984;2022-11-20T02:06:30;99797.28;;;-7.10;71.76
74635;BME280;63140;56.306;43.984;2022-11-20T02:08:58;99803.47;;;-7.16;71.50
74635;BME280;63140;56.306;43.984;2022-11-20T02:11:24;99795.19;;;-7.23;72.60
74635;BME280;63140;56.306;43.984;2022-11-20T02:13:50;99791.84;;;-7.24;72.35
74635;BME280;63140;56.306;43.984;2022-11-20T02:16:21;99790.31;;;-7.25;72.84
74635;BME280;63140;56.306;43.984;2022-11-20T02:18:48;99779.47;;;-7.27;72.37
74635;BME280;63140;56.306;43.984;2022-11-20T02:21:24;99781.53;;;-7.24;72.20
74635;BME280;63140;56.306;43.984;2022-11-20T02:24:15;99785.44;;;-7.26;72.54
74635;BME280;63140;56.306;43.984;2022-11-20T02:27:01;99783.34;;;-7.29;72.47
74635;BME280;63140;56.306;43.984;2022-11-20T02:29:32;99776.13;;;-7.27;73.52
74635;BME280;63140;56.306;43.984;2022-11-20T02:32:00;99768.91;;;-7.25;72.72
74635;BME280;63140;56.306;43.984;2022-11-20T02:34:27;99764.00;;;-7.22;73.21
74635;BME280;63140;56.306;43.984;2022-11-20T02:36:55;99763.50;;;-7.18;72.76
74635;BME280;63140;56.306;43.984;2022-11-20T02:39:24;99767.63;;;-7.23;72.73
74635;BME280;63140;56.306;43.984;2022-11-20T02:41:53;99767.34;;;-7.31;72.54
74635;BME280;63140;56.306;43.984;2022-11-20T02:44:20;99773.00;;;-7.34;72.87
74635;BME280;63140;56.306;43.984;2022-11-20T02:46:46;99772.78;;;-7.33;72.93
74635;BME280;63140;56.306;43.984;2022-11-20T02:49:12;99782.59;;;-7.30;72.99
74635;BME280;63140;56.306;43.984;2022-11-20T02:51:38;99784.09;;;-7.34;72.00
74635;BME280;63140;56.306;43.984;2022-11-20T02:54:03;99781.25;;;-7.37;71.90
74635;BME280;63140;56.306;43.984;2022-11-20T02:56:29;99791.31;;;-7.41;72.06
74635;BME280;63140;56.306;43.984;2022-11-20T02:58:56;99791.31;;;-7.41;72.59
74635;BME280;63140;56.306;43.984;2022-11-20T03:01:22;99778.19;;;-7.39;73.04
74635;BME280;63140;56.306;43.984;2022-11-20T03:03:48;99771.44;;;-7.46;72.76
74635;BME280;63140;56.306;43.984;2022-11-20T03:06:15;99771.44;;;-7.46;73.16
74635;BME280;63140;56.306;43.984;2022-11-20T03:08:42;99786.97;;;-7.40;72.02
74635;BME280;63140;56.306;43.984;2022-11-20T03:11:08;99771.22;;;-7.39;72.98
74635;BME280;63140;56.306;43.984;2022-11-20T03:13:34;99784.38;;;-7.35;72.06
74635;BME280;63140;56.306;43.984;2022-11-20T03:16:21;99777.66;;;-7.36;72.88
74635;BME280;63140;56.306;43.984;2022-11-20T03:18:48;99774.59;;;-7.33;72.65
74635;BME280;63140;56.306;43.984;2022-11-20T03:21:15;99777.16;;;-7.33;71.65
74635;BME280;63140;56.306;43.984;2022-11-20T03:23:41;99772.00;;;-7.43;72.48
74635;BME280;63140;56.306;43.984;2022-11-20T03:26:21;99779.69;;;-7.49;72.03
74635;BME280;63140;56.306;43.984;2022-11-20T03:28:49;99779.19;;;-7.46;72.61
74635;BME280;63140;56.306;43.984;2022-11-20T03:31:18;99767.34;;;-7.47;71.93
74635;BME280;63140;56.306;43.984;2022-11-20T03:33:44;99760.88;;;-7.54;71.22
74635;BME280;63140;56.306;43.984;2022-11-20T03:36:12;99765.78;;;-7.58;72.26
74635;BME280;63140;56.306;43.984;2022-11-20T03:38:39;99764.97;;;-7.58;72.77
74635;BME280;63140;56.306;43.984;2022-11-20T03:41:07;99764.72;;;-7.62;72.15
74635;BME280;63140;56.306;43.984;2022-11-20T03:43:33;99757.00;;;-7.57;71.97
74635;BME280;63140;56.306;43.984;2022-11-20T03:46:00;99755.44;;;-7.63;73.45
74635;BME280;63140;56.306;43.984;2022-11-20T03:48:26;99759.81;;;-7.58;72.63
74635;BME280;63140;56.306;43.984;2022-11-20T03:50:53;99750.81;;;-7.56;73.14
74635;BME280;63140;56.306;43.984;2022-11-20T03:53:31;99751.84;;;-7.57;72.09
74635;BME280;63140;56.306;43.984;2022-11-20T03:55:57;99744.88;;;-7.61;72.00
74635;BME280;63140;56.306;43.984;2022-11-20T03:58:23;99746.63;;;-7.72;71.71
74635;BME280;63140;56.306;43.984;2022-11-20T04:00:49;99761.59;;;-7.69;72.80
74635;BME280;63140;56.306;43.984;2022-11-20T04:03:14;99751.28;;;-7.74;71.36
74635;BME280;63140;56.306;43.984;2022-11-20T04:05:40;99766.72;;;-7.79;72.13
74635;BME280;63140;56.306;43.984;2022-11-20T04:08:06;99769.84;;;-7.77;72.53
74635;BME280;63140;56.306;43.984;2022-11-20T04:10:33;99777.56;;;-7.77;72.37
74635;BME280;63140;56.306;43.984;2022-11-20T04:12:58;99782.22;;;-7.74;73.37
74635;BME280;63140;56.306;43.984;2022-11-20T04:15:24;99778.34;;;-7.77;72.12
74635;BME280;63140;56.306;43.984;2022-11-20T04:17:50;99790.47;;;-7.72;72.70
74635;BME280;63140;56.306;43.984;2022-11-20T04:20:16;99784.81;;;-7.69;72.03
74635;BME280;63140;56.306;43.984;2022-11-20T04:22:42;99784.81;;;-7.74;73.19
74635;BME280;63140;56.306;43.984;2022-11-20T04:25:08;99779.16;;;-7.71;73.54
74635;BME280;63140;56.306;43.984;2022-11-20T04:27:34;99768.06;;;-7.66;72.52
74635;BME280;63140;56.306;43.984;2022-11-20T04:29:59;99767.28;;;-7.67;72.42
74635;BME280;63140;56.306;43.984;2022-11-20T04:32:25;99775.56;;;-7.65;71.81
74635;BME280;63140;56.306;43.984;2022-11-20T04:34:51;99766.78;;;-7.64;72.50
74635;BME280;63140;56.306;43.984;2022-11-20T04:37:18;99769.56;;;-7.76;72.32
74635;BME280;63140;56.306;43.984;2022-11-20T04:39:44;99763.09;;;-7.83;72.46
74635;BME280;63140;56.306;43.984;2022-11-20T04:42:10;99771.09;;;-7.85;71.57
74635;BME280;63140;56.306;43.984;2022-11-20T04:44:54;99769.81;;;-7.87;72.89
74635;BME280;63140;56.306;43.984;2022-11-20T04:47:20;99748.41;;;-7.93;72.85
74635;BME280;63140;56.306;43.984;2022-11-20T04:49:46;99773.41;;;-7.88;73.11
74635;BME280;63140;56.306;43.984;2022-11-20T04:52:12;99764.66;;;-7.87;73.33
74635;BME280;63140;56.306;43.984;2022-11-20T04:54:38;99763.09;;;-7.83;72.91
74635;BME280;63140;56.306;43.984;2022-11-20T04:57:04;99771.38;;;-7.76;72.89
74635;BME280;63140;56.306;43.984;2022-11-20T04:59:30;99759.03;;;-7.74;73.15
74635;BME280;63140;56.306;43.984;2022-11-20T05:01:56;99761.59;;;-7.74;72.25
74635;BME280;63140;56.306;43.984;2022-11-20T05:04:21;99757.22;;;-7.74;71.58
74635;BME280;63140;56.306;43.984;2022-11-20T05:06:47;99763.91;;;-7.73;72.39
74635;BME280;63140;56.306;43.984;2022-11-20T05:09:14;99758.50;;;-7.76;72.23
74635;BME280;63140;56.306;43.984;2022-11-20T05:11:40;99767.72;;;-7.90;72.85
74635;BME280;63140;56.306;43.984;2022-11-20T05:14:06;99771.34;;;-7.86;72.71
74635;BME280;63140;56.306;43.984;2022-11-20T05:16:34;99757.69;;;-7.87;71.76
74635;BME280;63140;56.306;43.984;2022-11-20T05:19:00;99774.19;;;-7.83;72.24
74635;BME280;63140;56.306;43.984;2022-11-20T05:21:26;99757.97;;;-7.78;72.89
74635;BME280;63140;56.306;43.984;2022-11-20T05:23:53;99768.81;;;-7.76;71.98
74635;BME280;63140;56.306;43.984;2022-11-20T05:26:21;99770.38;;;-7.75;71.59
74635;BME280;63140;56.306;43.984;2022-11-20T05:28:48;99770.38;;;-7.75;71.76
74635;BME280;63140;56.306;43.984;2022-11-20T05:31:16;99760.06;;;-7.75;72.33
74635;BME280;63140;56.306;43.984;2022-11-20T05:33:43;99772.94;;;-7.70;72.23
74635;BME280;63140;56.306;43.984;2022-11-20T05:36:11;99755.97;;;-7.61;72.94
74635;BME280;63140;56.306;43.984;2022-11-20T05:38:37;99758.03;;;-7.53;72.01
74635;BME280;63140;56.306;43.984;2022-11-20T05:41:12;99764.22;;;-7.49;71.96
74635;BME280;63140;56.306;43.984;2022-11-20T05:43:40;99754.94;;;-7.45;71.83
74635;BME280;63140;56.306;43.984;2022-11-20T05:46:08;99751.09;;;-7.37;71.61
74635;BME280;63140;56.306;43.984;2022-11-20T05:48:35;99759.84;;;-7.38;71.09
74635;BME280;63140;56.306;43.984;2022-11-20T05:51:03;99762.69;;;-7.39;71.91
74635;BME280;63140;56.306;43.984;2022-11-20T05:53:29;99760.13;;;-7.39;71.36
74635;BME280;63140;56.306;43.984;2022-11-20T05:56:03;99762.19;;;-7.36;72.29
74635;BME280;63140;56.306;43.984;2022-11-20T05:58:30;99754.69;;;-7.38;71.22
74635;BME280;63140;56.306;43.984;2022-11-20T06:03:33;99759.63;;;-7.36;71.82
74635;BME280;63140;56.306;43.984;2022-11-20T06:05:59;99758.06;;;-7.32;72.21
74635;BME280;63140;56.306;43.984;2022-11-20T06:08:25;99766.31;;;-7.30;71.87
74635;BME280;63140;56.306;43.984;2022-11-20T06:10:51;99764.25;;;-7.28;71.74
74635;BME280;63140;56.306;43.984;2022-11-20T06:13:17;99770.44;;;-7.24;71.15
74635;BME280;63140;56.306;43.984;2022-11-20T06:15:51;99764.78;;;-7.21;71.30
74635;BME280;63140;56.306;43.984;2022-11-20T06:18:18;99761.94;;;-7.25;71.82
74635;BME280;63140;56.306;43.984;2022-11-20T06:20:44;99759.63;;;-7.21;72.01
74635;BME280;63140;56.306;43.984;2022-11-20T06:23:10;99757.03;;;-7.21;71.09
74635;BME280;63140;56.306;43.984;2022-11-20T06:25:40;99759.88;;;-7.17;71.50
74635;BME280;63140;56.306;43.984;2022-11-20T06:28:07;99754.97;;;-7.14;72.12
74635;BME280;63140;56.306;43.984;2022-11-20T06:30:33;99764.25;;;-7.08;71.63
74635;BME280;63140;56.306;43.984;2022-11-20T06:32:59;99761.19;;;-7.05;71.71
74635;BME280;63140;56.306;43.984;2022-11-20T06:35:25;99760.66;;;-6.97;71.51
74635;BME280;63140;56.306;43.984;2022-11-20T06:37:50;99759.09;;;-6.92;71.46
74635;BME280;63140;56.306;43.984;2022-11-20T06:40:16;99759.09;;;-6.87;71.14
74635;BME280;63140;56.306;43.984;2022-11-20T06:42:42;99762.72;;;-6.83;71.18
74635;BME280;63140;56.306;43.984;2022-11-20T06:45:08;99758.59;;;-6.84;70.99
74635;BME280;63140;56.306;43.984;2022-11-20T06:47:34;99758.53;;;-6.74;70.98
74635;BME280;63140;56.306;43.984;2022-11-20T06:50:00;99767.31;;;-6.65;71.00
74635;BME280;63140;56.306;43.984;2022-11-20T06:52:26;99775.56;;;-6.58;70.46
74635;BME280;63140;56.306;43.984;2022-11-20T06:54:52;99760.31;;;-6.54;69.95
74635;BME280;63140;56.306;43.984;2022-11-20T06:57:18;99765.22;;;-6.47;69.98
74635;BME280;63140;56.306;43.984;2022-11-20T06:59:44;99756.94;;;-6.44;70.48
74635;BME280;63140;56.306;43.984;2022-11-20T07:02:11;99765.19;;;-6.42;70.08
74635;BME280;63140;56.306;43.984;2022-11-20T07:04:40;99760.03;;;-6.42;69.58
74635;BME280;63140;56.306;43.984;2022-11-20T07:07:06;99766.25;;;-6.43;69.64
74635;BME280;63140;56.306;43.984;2022-11-20T07:09:32;99775.53;;;-6.42;70.14
74635;BME280;63140;56.306;43.984;2022-11-20T07:12:02;99764.16;;;-6.36;70.50
74635;BME280;63140;56.306;43.984;2022-11-20T07:14:27;99754.34;;;-6.39;69.43
74635;BME280;63140;56.306;43.984;2022-11-20T07:16:54;99764.91;;;-6.36;70.32
74635;BME280;63140;56.306;43.984;2022-11-20T07:19:23;99760.03;;;-6.42;69.54
74635;BME280;63140;56.306;43.984;2022-11-20T07:21:49;99763.16;;;-6.45;69.14
74635;BME280;63140;56.306;43.984;2022-11-20T07:24:15;99761.59;;;-6.41;69.60
74635;BME280;63140;56.306;43.984;2022-11-20T07:26:41;99774.00;;;-6.43;69.85
74635;BME280;63140;56.306;43.984;2022-11-20T07:29:07;99766.78;;;-6.52;69.58
74635;BME280;63140;56.306;43.984;2022-11-20T07:31:33;99787.19;;;-6.55;69.97
74635;BME280;63140;56.306;43.984;2022-11-20T07:34:01;99778.13;;;-6.47;70.29
74635;BME280;63140;56.306;43.984;2022-11-20T07:36:27;99794.13;;;-6.40;70.93
74635;BME280;63140;56.306;43.984;2022-11-20T07:38:53;99796.69;;;-6.35;70.71
74635;BME280;63140;56.306;43.984;2022-11-20T07:41:19;99799.81;;;-6.33;70.19
74635;BME280;63140;56.306;43.984;2022-11-20T07:43:45;99810.66;;;-6.36;69.44
74635;BME280;63140;56.306;43.984;2022-11-20T07:46:11;99809.13;;;-6.37;69.52
74635;BME280;63140;56.306;43.984;2022-11-20T07:48:37;99809.91;;;-6.42;70.41
74635;BME280;63140;56.306;43.984;2022-11-20T07:51:03;99817.66;;;-6.32;70.58
74635;BME280;63140;56.306;43.984;2022-11-20T07:53:29;99810.63;;;-6.26;70.85
74635;BME280;63140;56.306;43.984;2022-11-20T07:55:59;99813.22;;;-6.21;70.09
74635;BME280;63140;56.306;43.984;2022-11-20T07:58:28;99808.81;;;-6.15;70.23
74635;BME280;63140;56.306;43.984;2022-11-20T08:00:55;99820.16;;;-6.11;69.57
74635;BME280;63140;56.306;43.984;2022-11-20T08:03:21;99812.16;;;-6.15;69.64
74635;BME280;63140;56.306;43.984;2022-11-20T08:05:56;99817.31;;;-6.05;70.04
74635;BME280;63140;56.306;43.984;2022-11-20T08:08:24;99819.38;;;-5.96;69.73
74635;BME280;63140;56.306;43.984;2022-11-20T08:10:49;99814.44;;;-5.98;69.89
74635;BME280;63140;56.306;43.984;2022-11-20T08:13:18;99824.53;;;-5.96;69.71
74635;BME280;63140;56.306;43.984;2022-11-20T08:16:02;99823.97;;;-5.93;69.18
74635;BME280;63140;56.306;43.984;2022-11-20T08:18:29;99823.44;;;-5.90;69.92
74635;BME280;63140;56.306;43.984;2022-11-20T08:20:54;99833.06;;;-5.96;68.97
74635;BME280;63140;56.306;43.984;2022-11-20T08:23:23;99828.66;;;-6.01;68.44
74635;BME280;63140;56.306;43.984;2022-11-20T08:25:50;99821.94;;;-6.02;68.76
74635;BME280;63140;56.306;43.984;2022-11-20T08:28:16;99821.44;;;-6.04;69.58
74635;BME280;63140;56.306;43.984;2022-11-20T08:30:42;99835.16;;;-6.03;69.34
74635;BME280;63140;56.306;43.984;2022-11-20T08:33:08;99842.38;;;-6.00;69.78
74635;BME280;63140;56.306;43.984;2022-11-20T08:35:35;99841.09;;;-6.03;68.64
74635;BME280;63140;56.306;43.984;2022-11-20T08:38:08;99844.16;;;-6.01;69.68
74635;BME280;63140;56.306;43.984;2022-11-20T08:40:37;99840.81;;;-5.96;70.14
74635;BME280;63140;56.306;43.984;2022-11-20T08:43:06;99857.88;;;-5.95;69.91
74635;BME280;63140;56.306;43.984;2022-11-20T08:45:32;99858.09;;;-5.91;69.39
74635;BME280;63140;56.306;43.984;2022-11-20T08:48:04;99859.38;;;-5.89;70.36
74635;BME280;63140;56.306;43.984;2022-11-20T08:50:35;99859.63;;;-5.85;69.93
74635;BME280;63140;56.306;43.984;2022-11-20T08:53:05;99856.28;;;-5.86;68.90
74635;BME280;63140;56.306;43.984;2022-11-20T08:55:31;99854.19;;;-5.84;69.62
74635;BME280;63140;56.306;43.984;2022-11-20T08:57:57;99844.88;;;-5.85;69.40
74635;BME280;63140;56.306;43.984;2022-11-20T09:00:26;99857.53;;;-5.83;69.26
74635;BME280;63140;56.306;43.984;2022-11-20T09:02:55;99850.78;;;-5.79;69.21
74635;BME280;63140;56.306;43.984;2022-11-20T09:05:21;99837.84;;;-5.74;69.23
74635;BME280;63140;56.306;43.984;2022-11-20T09:07:47;99828.03;;;-5.77;68.56
74635;BME280;63140;56.306;43.984;2022-11-20T09:10:13;99832.44;;;-5.78;68.17
74635;BME280;63140;56.306;43.984;2022-11-20T09:12:38;99841.25;;;-5.79;69.30
74635;BME280;63140;56.306;43.984;2022-11-20T09:15:04;99830.13;;;-5.84;69.19
74635;BME280;63140;56.306;43.984;2022-11-20T09:17:30;99848.19;;;-5.79;69.23
74635;BME280;63140;56.306;43.984;2022-11-20T09:19:56;99846.16;;;-5.82;69.05
74635;BME280;63140;56.306;43.984;2022-11-20T09:22:22;99835.53;;;-5.81;69.14
74635;BME280;63140;56.306;43.984;2022-11-20T09:24:48;99836.09;;;-5.89;68.66
74635;BME280;63140;56.306;43.984;2022-11-20T09:27:14;99837.94;;;-5.94;68.59
74635;BME280;63140;56.306;43.984;2022-11-20T09:29:40;99850.88;;;-5.94;69.05
74635;BME280;63140;56.306;43.984;2022-11-20T09:32:06;99841.06;;;-5.92;69.18
74635;BME280;63140;56.306;43.984;2022-11-20T09:34:32;99852.16;;;-5.97;68.06
74635;BME280;63140;56.306;43.984;2022-11-20T09:36:57;99848.56;;;-6.01;69.08
74635;BME280;63140;56.306;43.984;2022-11-20T09:39:23;99842.63;;;-6.02;69.62
74635;BME280;63140;56.306;43.984;2022-11-20T09:56:08;99812.19;;;-6.25;68.98
74635;BME280;63140;56.306;43.984;2022-11-20T09:58:45;99819.44;;;-6.27;68.53
74635;BME280;63140;56.306;43.984;2022-11-20T10:01:15;99817.66;;;-6.32;69.39
74635;BME280;63140;56.306;43.984;2022-11-20T10:06:18;99826.69;;;-6.39;69.25
74635;BME280;63140;56.306;43.984;2022-11-20T10:09:04;99810.41;;;-6.40;69.36
74635;BME280;63140;56.306;43.984;2022-11-20T10:20:25;99816.31;;;-6.19;70.47
74635;BME280;63140;56.306;43.984;2022-11-20T10:31:02;99828.47;;;-6.19;69.42
74635;BME280;63140;56.306;43.984;2022-11-20T10:33:33;99828.19;;;-6.18;68.82
74635;BME280;63140;56.306;43.984;2022-11-20T10:38:40;99843.75;;;-6.28;69.24
74635;BME280;63140;56.306;43.984;2022-11-20T10:41:13;99843.22;;;-6.35;69.91
74635;BME280;63140;56.306;43.984;2022-11-20T10:44:04;99844.25;;;-6.36;69.42
74635;BME280;63140;56.306;43.984;2022-11-20T10:46:43;99840.38;;;-6.34;69.42
74635;BME280;63140;56.306;43.984;2022-11-20T10:49:17;99838.03;;;-6.35;69.46
74635;BME280;63140;56.306;43.984;2022-11-20T10:52:09;99817.91;;;-6.38;69.72
74635;BME280;63140;56.306;43.984;2022-11-20T11:00:08;99817.41;;;-6.45;69.77
74635;BME280;63140;56.306;43.984;2022-11-20T11:02:53;99828.78;;;-6.41;70.47
74635;BME280;63140;56.306;43.984;2022-11-20T11:05:23;99847.34;;;-6.39;70.41
74635;BME280;63140;56.306;43.984;2022-11-20T11:07:54;99831.09;;;-6.45;69.64
74635;BME280;63140;56.306;43.984;2022-11-20T11:12:48;99830.84;;;-6.43;70.74
74635;BME280;63140;56.306;43.984;2022-11-20T11:15:28;99829.78;;;-6.37;70.75
74635;BME280;63140;56.306;43.984;2022-11-20T11:17:55;99824.59;;;-6.32;69.99
74635;BME280;63140;56.306;43.984;2022-11-20T11:20:24;99819.69;;;-6.39;70.05
74635;BME280;63140;56.306;43.984;2022-11-20T11:22:52;99819.94;;;-6.35;70.13
74635;BME280;63140;56.306;43.984;2022-11-20T11:25:32;99814.25;;;-6.32;69.78
74635;BME280;63140;56.306;43.984;2022-11-20T11:28:20;99818.66;;;-6.33;69.91
74635;BME280;63140;56.306;43.984;2022-11-20T11:30:46;99818.16;;;-6.35;69.96
74635;BME280;63140;56.306;43.984;2022-11-20T11:33:22;99805.75;;;-6.33;70.66
74635;BME280;63140;56.306;43.984;2022-11-20T11:35:51;99797.50;;;-6.35;69.75
74635;BME280;63140;56.306;43.984;2022-11-20T11:38:43;99820.72;;;-6.30;70.52
74635;BME280;63140;56.306;43.984;2022-11-20T11:41:17;99835.47;;;-6.30;70.24
74635;BME280;63140;56.306;43.984;2022-11-20T11:46:57;99839.59;;;-6.24;70.62
74635;BME280;63140;56.306;43.984;2022-11-20T11:49:23;99834.91;;;-6.22;70.39
74635;BME280;63140;56.306;43.984;2022-11-20T11:52:10;99842.16;;;-6.14;70.26
74635;BME280;63140;56.306;43.984;2022-11-20T12:00:16;99849.38;;;-6.11;70.69
74635;BME280;63140;56.306;43.984;2022-11-20T12:05:42;99833.88;;;-6.16;70.51
74635;BME280;63140;56.306;43.984;2022-11-20T12:08:15;99848.63;;;-6.21;70.80
74635;BME280;63140;56.306;43.984;2022-11-20T12:11:29;99856.63;;;-6.23;71.34
74635;BME280;63140;56.306;43.984;2022-11-20T12:16:45;99867.47;;;-6.16;71.20
74635;BME280;63140;56.306;43.984;2022-11-20T12:19:13;99859.69;;;-6.11;71.15
74635;BME280;63140;56.306;43.984;2022-11-20T12:24:53;99867.47;;;-6.11;71.40
74635;BME280;63140;56.306;43.984;2022-11-20T12:41:33;99871.09;;;-6.07;71.32
74635;BME280;63140;56.306;43.984;2022-11-20T12:50:15;99877.28;;;-6.03;70.84
74635;BME280;63140;56.306;43.984;2022-11-20T12:52:56;99872.09;;;-6.08;70.36
74635;BME280;63140;56.306;43.984;2022-11-20T12:55:31;99879.88;;;-6.08;71.48
74635;BME280;63140;56.306;43.984;2022-11-20T12:58:24;99869.53;;;-6.08;70.84
74635;BME280;63140;56.306;43.984;2022-11-20T13:01:04;99888.66;;;-6.09;71.23
74635;BME280;63140;56.306;43.984;2022-11-20T13:06:25;99886.59;;;-6.07;71.99
74635;BME280;63140;56.306;43.984;2022-11-20T13:08:55;99896.69;;;-6.00;72.02
74635;BME280;63140;56.306;43.984;2022-11-20T13:14:20;99901.56;;;-5.98;71.16
74635;BME280;63140;56.306;43.984;2022-11-20T13:19:29;99900.00;;;-5.94;71.45
74635;BME280;63140;56.306;43.984;2022-11-20T13:21:55;99894.28;;;-5.91;70.80
74635;BME280;63140;56.306;43.984;2022-11-20T13:24:22;99897.41;;;-5.89;70.20
74635;BME280;63140;56.306;43.984;2022-11-20T13:29:35;99892.78;;;-5.92;70.46
74635;BME280;63140;56.306;43.984;2022-11-20T13:32:21;99900.78;;;-5.94;71.24
74635;BME280;63140;56.306;43.984;2022-11-20T13:34:58;99896.94;;;-5.96;70.32
74635;BME280;63140;56.306;43.984;2022-11-20T13:37:37;99897.94;;;-5.97;70.95
74635;BME280;63140;56.306;43.984;2022-11-20T13:45:24;99903.63;;;-5.95;71.55
74635;BME280;63140;56.306;43.984;2022-11-20T13:47:52;99905.19;;;-5.94;72.16
74635;BME280;63140;56.306;43.984;2022-11-20T13:50:23;99908.75;;;-5.90;71.15
74635;BME280;63140;56.306;43.984;2022-11-20T14:01:23;99925.81;;;-5.84;71.41
74635;BME280;63140;56.306;43.984;2022-11-20T14:03:50;99919.34;;;-5.82;71.77
74635;BME280;63140;56.306;43.984;2022-11-20T14:06:26;99921.13;;;-5.77;71.81
74635;BME280;63140;56.306;43.984;2022-11-20T14:08:53;99909.75;;;-5.76;71.65
74635;BME280;63140;56.306;43.984;2022-11-20T14:11:21;99899.69;;;-5.78;70.87
74635;BME280;63140;56.306;43.984;2022-11-20T14:14:04;99906.66;;;-5.78;71.25
74635;BME280;63140;56.306;43.984;2022-11-20T14:16:39;99896.56;;;-5.80;71.76
74635;BME280;63140;56.306;43.984;2022-11-20T14:21:53;99912.34;;;-5.76;71.49
74635;BME280;63140;56.306;43.984;2022-11-20T14:24:22;99915.44;;;-5.79;71.50
74635;BME280;63140;56.306;43.984;2022-11-20T14:26:49;99911.31;;;-5.80;71.84
74635;BME280;63140;56.306;43.984;2022-11-20T14:29:18;99918.31;;;-5.76;71.60
74635;BME280;63140;56.306;43.984;2022-11-20T14:31:45;99924.75;;;-5.73;71.69
74635;BME280;63140;56.306;43.984;2022-11-20T14:34:18;99937.16;;;-5.70;71.37
74635;BME280;63140;56.306;43.984;2022-11-20T14:36:45;99922.41;;;-5.69;71.48
74635;BME280;63140;56.306;43.984;2022-11-20T14:39:12;99919.56;;;-5.68;71.81
74635;BME280;63140;56.306;43.984;2022-11-20T14:41:52;99912.31;;;-5.66;71.66
74635;BME280;63140;56.306;43.984;2022-11-20T14:44:23;99921.13;;;-5.67;71.16
74635;BME280;63140;56.306;43.984;2022-11-20T14:46:51;99927.34;;;-5.73;70.85
74635;BME280;63140;56.306;43.984;2022-11-20T14:49:18;99918.03;;;-5.79;70.42
74635;BME280;63140;56.306;43.984;2022-11-20T14:51:44;99921.94;;;-5.87;71.00